• Join FlightAware (Why Join?)
  • Login
  • US Flag 
Gobble Gobble! 
01:41AM EST


 

Airport Tracker/Info


-or-


 

Live Flight TrackerFlight Track Log ✈ AM223 ✈ 12-Apr-2013 ✈ YGTH / GFF - YMAY / ABX

Flight Track Log - Related Links

Times and Time Zones

All times are in EDT time to prevent confusion due to time zone crossing. See the AM223 flight status page for this flight to view local times or setup timezone preferences in your user account.

Time Position Orientation Groundspeed Altitude Reporting Facility
EDT Latitude Longitude Course Direction KTS MPH feet Rate Location/Type
12:02PM -34.3333 146.0845 301° West 900  Level Aus ATC (Calculated)
12:03PM -34.3010 146.0190 181° South 147 169 2,200 2,520 Climbing FlightAware
12:03PM -34.3893 146.1124 325° Northwest 900 5,700 Descending Aus ATC (Calculated)
12:03PM -34.3050 146.0420 102° East 132 152 4,100 5,820 Climbing FlightAware
12:04PM -34.3150 146.0630 120° Southeast 137 158 5,300 2,280 Climbing FlightAware
12:04PM -34.3220 146.0790 118° Southeast 140 161 6,200 2,160 Climbing FlightAware
12:05PM -34.3310 146.0980 120° Southeast 137 158 7,300 2,220 Climbing FlightAware
12:05PM -34.3390 146.1080 134° Southeast 136 157 7,900 3,240 Climbing FlightAware
12:05PM -34.3466 146.1180 134° Southeast 121 139 9,000 2,400 Climbing Aus ATC (RADAR)
12:05PM -34.3570 146.1200 134° Southeast 138 159 9,100 1,440 Climbing FlightAware
12:06PM -34.3660 146.1240 160° South 138 159 9,700 2,820 Climbing FlightAware
12:06PM -34.3878 146.1355 160° South 152 175 11,300 2,100 Climbing Aus ATC (RADAR)
12:06PM -34.3930 146.1370 160° South 155 178 11,100 1,440 Descending FlightAware
12:07PM -34.4200 146.1500 158° South 146 168 12,500 2,520 Climbing FlightAware
12:07PM -34.4333 146.1566 158° South 163 188 13,500 1,860 Climbing Aus ATC (RADAR)
12:08PM -34.4510 146.1650 158° South 158 182 13,900 1,680 Climbing FlightAware
12:08PM -34.4760 146.1774 158° South 169 194 15,200 1,800 Climbing Aus ATC (RADAR)
12:08PM -34.4800 146.1790 158° South 162 186 15,100 1,440 Descending FlightAware
12:09PM -34.5130 146.1950 158° South 178 205 16,500 1,800 Climbing FlightAware
12:10PM -34.5450 146.2110 158° South 174 200 17,700 2,100 Climbing FlightAware
12:10PM -34.5748 146.2251 158° South 179 206 19,200 1,680 Climbing Aus ATC (RADAR)
12:11PM -34.5790 146.2270 158° South 177 204 19,000 840 Descending FlightAware
12:11PM -34.6100 146.2420 158° South 179 206 19,900 1,380 Climbing FlightAware
12:12PM -34.6265 146.2502 158° South 191 220 20,300 120 Climbing Aus ATC (RADAR)
12:12PM -34.6460 146.2590 158° South 229 264 20,000  Descending FlightAware
12:13PM -34.6901 146.2812 158° South 254 292 20,300  Climbing Aus ATC (RADAR)
12:13PM -34.6980 146.2850 158° South 265 305 20,000 -180 Descending FlightAware
12:13PM -34.7440 146.3070 159° South 278 320 20,200 600 Climbing FlightAware
12:14PM -34.7679 146.3195 159° South 278 320 20,600 600 Climbing Aus ATC (RADAR)
12:14PM -34.7920 146.3310 159° South 278 320 20,600 300 Level FlightAware
12:15PM -34.8460 146.3580 158° South 277 319 21,000 240 Climbing FlightAware
12:15PM -34.8960 146.3760 164° South 287 330 21,000  Level FlightAware
12:16PM -34.9550 146.4000 162° South 287 330 21,000  Level FlightAware
12:17PM -35.0060 146.4200 162° South 290 334 21,000  Level FlightAware
12:18PM -35.0600 146.4410 162° South 292 336 21,000 240 Level FlightAware
12:18PM -35.0974 146.4558 162° South 299 344 21,300  Climbing Aus ATC (RADAR)
12:18PM -35.1140 146.4620 162° South 292 336 21,000 -1,320 Descending FlightAware
12:19PM -35.1660 146.4830 162° South 309 356 20,100 -1,440 Descending FlightAware
12:19PM -35.2125 146.5015 162° South 309 356 19,500 -1,560 Descending Aus ATC (RADAR)
12:20PM -35.2340 146.5100 162° South 309 356 18,800 -1,380 Descending FlightAware
12:20PM -35.2732 146.5250 162° South 307 353 18,500 -1,380 Descending Aus ATC (RADAR)
12:20PM -35.2880 146.5310 162° South 293 337 17,900 -1,800 Descending FlightAware
12:21PM -35.3470 146.5540 162° South 293 337 16,700 -1,680 Descending FlightAware
12:22PM -35.3990 146.5750 162° South 290 334 15,600 -1,500 Descending FlightAware
12:23PM -35.4633 146.6004 162° South 289 333 14,600 -1,620 Descending Aus ATC (RADAR)
12:23PM -35.4610 146.5990 162° South 292 336 14,400 -1,800 Descending FlightAware
12:23PM -35.5100 146.6190 162° South 288 331 13,400 -1,620 Descending FlightAware
12:24PM -35.5610 146.6390 162° South 284 327 12,300 -1,440 Descending FlightAware
12:24PM -35.5904 146.6513 162° South 285 328 12,000 -1,380 Descending Aus ATC (RADAR)
12:25PM -35.6140 146.6600 162° South 284 327 11,300 -1,740 Descending FlightAware
12:25PM -35.6700 146.6820 162° South 283 326 10,100 -1,440 Descending FlightAware
12:26PM -35.6964 146.6930 162° South 282 325 9,900 -1,440 Descending Aus ATC (RADAR)
12:26PM -35.7000 146.6940 162° South 278 320 9,500 -1,860 Descending FlightAware
12:26PM -35.7330 146.7080 161° South 273 314 8,800 -1,320 Descending FlightAware
12:27PM -35.8205 146.7427 161° South 260 299 7,400 -1,440 Descending Aus ATC (RADAR)
12:28PM -35.8520 146.7550 161° South 259 298 6,400 -1,620 Descending FlightAware
12:28PM -35.8790 146.7660 162° South 256 295 5,900 -1,260 Descending FlightAware
12:29PM -35.9213 146.7829 162° South 248 285 5,200 -1,200 Descending Aus ATC (RADAR)
12:29PM -35.9130 146.7790 162° South 253 291 5,200  Level FlightAware
12:29PM -35.9370 146.7890 161° South 253 291 5,200 -960 Level FlightAware
12:31PM -36.0310 146.9143 140° Southeast 500 -1,020 Descending Aus ATC (Calculated)
12:32PM -36.0249 146.9026 134° Southeast  Level Estimated
12:33PM -36.0678 146.9581 136° Southeast  Level Estimated
12:34PM -36.0678 146.9581 302° West  Level Estimated
12:34PM -36.0680 146.9530 302° West 103 119 300  Level FlightAware
12:35PM -36.0670 146.9610 81° East 81 93 300  Level FlightAware
12:35PM -36.0650 146.9720 77° East 81 93 300  Level FlightAware
12:38PM -36.0676 146.9582 274° West  Level FlightAware Approximate
12:39PM -36.0678 146.9581 274° West  Level Estimated
12:40PM -36.0676 146.9582 274° West  Level FlightAware Approximate
12:41PM -36.0678 146.9581 274° West  Level Estimated
12:42PM -36.0676 146.9582 274° West  Level FlightAware Approximate
12:43PM -36.0678 146.9581 274° West  Level Estimated
12:44PM -36.0676 146.9582 274° West  Level FlightAware Approximate
12:45PM -36.0678 146.9581 274° West  Level Estimated
12:46PM -36.0676 146.9582 274° West  Level FlightAware Approximate
12:47PM -36.0678 146.9581 274° West  Level Estimated
12:48PM -36.0676 146.9582 274° West  Level FlightAware Approximate
12:49PM -36.0678 146.9581 274° West  Level Estimated
12:50PM -36.0676 146.9582 274° West  Level FlightAware Approximate
12:51PM -36.0678 146.9581 274° West  Level Estimated
12:52PM -36.0676 146.9582 274° West  Level FlightAware Approximate